Time;durP1;ratioP1;P1;durP2;ratioP2;P2;SDS_P1;SDS_P2;PMS_P1;PMS_P2;Temp;Humidity;BMP_temperature;BMP_pressure;BME280_temperature;BME280_humidity;BME280_pressure;Samples;Min_cycle;Max_cycle;Signal;HPM_P1;HPM_P2
2023/09/29 00:01:32;;;;;;;22.98;14.65;;;;;;;;;;10442490;28;20021;-85
2023/09/29 00:06:39;;;;;;;29.60;18.58;;;;;;;;;;10439538;28;20040;-86
2023/09/29 00:11:41;;;;;;;32.15;20.00;;;;;;;;;;10452009;28;20036;-86
2023/09/29 00:16:42;;;;;;;26.63;15.63;;;;;;;;;;10436369;28;20028;-85
2023/09/29 00:21:43;;;;;;;28.15;19.00;;;;;;;;;;10437605;28;20580;-85
2023/09/29 00:26:44;;;;;;;33.42;18.90;;;;;;;;;;10446159;28;20032;-86
2023/09/29 00:31:45;;;;;;;30.80;19.30;;;;;;;;;;10437665;28;20048;-86
2023/09/29 00:36:47;;;;;;;24.08;16.08;;;;;;;;;;10449450;28;20032;-87
2023/09/29 00:41:49;;;;;;;25.58;16.80;;;;;;;;;;10440222;28;20547;-86
2023/09/29 00:46:51;;;;;;;27.00;17.15;;;;;;;;;;10446365;28;20024;-85
2023/09/29 00:51:52;;;;;;;30.70;18.95;;;;;;;;;;10447803;28;20404;-86
2023/09/29 00:56:53;;;;;;;22.23;15.43;;;;;;;;;;10473614;28;20039;-85
2023/09/29 01:01:56;;;;;;;22.20;14.90;;;;;;;;;;10469814;28;20070;-87
2023/09/29 01:06:57;;;;;;;33.25;20.08;;;;;;;;;;10470648;28;20036;-86
2023/09/29 01:12:00;;;;;;;35.20;19.45;;;;;;;;;;10472805;28;20032;-87
2023/09/29 01:17:01;;;;;;;30.10;19.38;;;;;;;;;;10464482;28;20441;-87
2023/09/29 01:22:03;;;;;;;33.75;20.98;;;;;;;;;;10471914;28;20783;-86
2023/09/29 01:27:04;;;;;;;23.95;16.60;;;;;;;;;;10489973;28;20040;-86
2023/09/29 01:32:05;;;;;;;26.75;16.60;;;;;;;;;;10470631;28;20081;-87
2023/09/29 01:37:07;;;;;;;28.15;20.00;;;;;;;;;;10471917;28;20058;-86
2023/09/29 01:42:08;;;;;;;28.35;18.13;;;;;;;;;;10489944;28;20049;-86
2023/09/29 01:47:09;;;;;;;28.63;18.75;;;;;;;;;;10470733;28;20025;-86
2023/09/29 01:52:10;;;;;;;33.35;19.33;;;;;;;;;;10462705;28;20122;-86
2023/09/29 01:57:12;;;;;;;32.20;19.73;;;;;;;;;;10471125;28;20090;-87
2023/09/29 02:02:13;;;;;;;30.67;19.75;;;;;;;;;;10470613;28;20503;-86
2023/09/29 02:07:14;;;;;;;30.13;18.75;;;;;;;;;;10468600;28;20038;-86
2023/09/29 02:12:17;;;;;;;26.10;16.85;;;;;;;;;;10488166;28;20047;-86
2023/09/29 02:17:18;;;;;;;30.42;19.88;;;;;;;;;;10469529;28;20036;-86
2023/09/29 02:22:19;;;;;;;23.70;16.65;;;;;;;;;;10488540;28;20028;-86
2023/09/29 02:27:21;;;;;;;31.13;19.95;;;;;;;;;;10469924;28;20025;-86
2023/09/29 02:32:22;;;;;;;24.38;17.63;;;;;;;;;;10467796;28;20140;-86
2023/09/29 02:37:23;;;;;;;27.60;18.80;;;;;;;;;;10486767;28;20068;-86
2023/09/29 02:42:24;;;;;;;25.92;18.23;;;;;;;;;;10486054;28;20028;-86
2023/09/29 02:47:25;;;;;;;30.42;20.30;;;;;;;;;;10468257;28;20036;-86
2023/09/29 02:52:30;;;;;;;24.30;17.95;;;;;;;;;;10468650;28;20060;-86
2023/09/29 02:57:31;;;;;;;26.60;18.20;;;;;;;;;;10486763;28;20044;-86
2023/09/29 03:02:32;;;;;;;30.85;21.13;;;;;;;;;;10468027;28;20042;-86
2023/09/29 03:07:34;;;;;;;32.33;21.38;;;;;;;;;;10467688;28;20085;-86
2023/09/29 03:12:36;;;;;;;26.90;18.88;;;;;;;;;;10468288;28;20066;-86
2023/09/29 03:17:37;;;;;;;29.80;21.13;;;;;;;;;;10466848;28;20078;-86
2023/09/29 03:22:41;;;;;;;26.63;17.73;;;;;;;;;;10460792;28;20111;-81
2023/09/29 03:27:43;;;;;;;27.83;17.92;;;;;;;;;;10480571;28;20475;-86
2023/09/29 03:32:45;;;;;;;22.98;16.27;;;;;;;;;;10466061;28;20078;-87
2023/09/29 03:37:46;;;;;;;30.35;20.75;;;;;;;;;;10463333;28;20593;-85
2023/09/29 03:42:47;;;;;;;31.35;19.67;;;;;;;;;;10466987;28;20052;-82
2023/09/29 03:47:48;;;;;;;27.67;17.50;;;;;;;;;;10476958;28;20755;-82
2023/09/29 03:52:49;;;;;;;36.40;21.73;;;;;;;;;;10483912;28;20060;-85
2023/09/29 03:57:50;;;;;;;25.67;19.83;;;;;;;;;;10467108;28;20028;-83
2023/09/29 04:02:51;;;;;;;22.88;15.73;;;;;;;;;;10466032;28;20377;-84
2023/09/29 04:07:52;;;;;;;26.10;17.45;;;;;;;;;;10466380;28;20103;-86
2023/09/29 04:12:53;;;;;;;36.17;19.80;;;;;;;;;;10466152;28;20064;-86
2023/09/29 04:17:54;;;;;;;19.45;14.43;;;;;;;;;;10471566;28;20032;-84
2023/09/29 04:22:55;;;;;;;24.27;15.02;;;;;;;;;;10472588;28;20384;-86
2023/09/29 04:27:56;;;;;;;21.30;14.63;;;;;;;;;;10463520;28;20025;-84
2023/09/29 04:32:57;;;;;;;31.83;19.42;;;;;;;;;;10477800;28;20813;-84
2023/09/29 04:37:58;;;;;;;24.73;17.50;;;;;;;;;;10483807;28;20020;-84
2023/09/29 04:42:59;;;;;;;35.78;19.80;;;;;;;;;;10484080;28;20025;-85
2023/09/29 04:48:01;;;;;;;33.25;20.52;;;;;;;;;;10447933;28;20028;-84
2023/09/29 04:53:02;;;;;;;30.83;20.02;;;;;;;;;;10469466;28;20056;-83
2023/09/29 04:58:03;;;;;;;31.15;19.30;;;;;;;;;;10491531;28;20024;-84
2023/09/29 05:03:04;;;;;;;36.17;21.98;;;;;;;;;;10491823;28;20052;-84
2023/09/29 05:08:05;;;;;;;45.90;24.10;;;;;;;;;;10490476;28;20040;-84
2023/09/29 05:13:06;;;;;;;31.63;20.58;;;;;;;;;;10490583;28;20048;-85
2023/09/29 05:18:13;;;;;;;37.20;24.15;;;;;;;;;;10490665;28;20052;-84
2023/09/29 05:23:14;;;;;;;34.58;21.50;;;;;;;;;;10490039;28;20024;-83
2023/09/29 05:28:15;;;;;;;36.10;19.75;;;;;;;;;;10489998;28;20127;-84
2023/09/29 05:33:24;;;;;;;34.65;20.85;;;;;;;;;;10490253;28;20055;-84
2023/09/29 05:38:25;;;;;;;31.98;20.45;;;;;;;;;;10489869;28;20487;-85
2023/09/29 05:43:26;;;;;;;29.42;20.20;;;;;;;;;;10490012;28;20040;-84
2023/09/29 05:48:27;;;;;;;33.38;20.67;;;;;;;;;;10488870;28;20040;-84
2023/09/29 05:53:41;;;;;;;28.33;20.40;;;;;;;;;;10488767;28;20555;-85
2023/09/29 05:58:42;;;;;;;30.23;20.52;;;;;;;;;;10489003;28;20020;-84
2023/09/29 06:03:44;;;;;;;31.35;19.33;;;;;;;;;;10469769;28;20055;-84
2023/09/29 06:08:45;;;;;;;31.77;18.60;;;;;;;;;;10488365;28;20384;-84
2023/09/29 06:13:47;;;;;;;34.63;20.35;;;;;;;;;;10469887;28;20727;-83
2023/09/29 06:18:48;;;;;;;34.50;20.65;;;;;;;;;;10488468;28;20035;-84
2023/09/29 06:23:49;;;;;;;30.92;19.48;;;;;;;;;;10487554;28;20033;-83
2023/09/29 06:28:50;;;;;;;31.55;19.98;;;;;;;;;;10469573;28;20612;-86
2023/09/29 06:33:51;;;;;;;34.67;20.00;;;;;;;;;;10487389;28;20045;-84
2023/09/29 06:38:52;;;;;;;28.08;17.50;;;;;;;;;;10487349;28;20168;-84
2023/09/29 06:43:53;;;;;;;27.85;16.85;;;;;;;;;;10474705;28;20227;-84
2023/09/29 06:48:54;;;;;;;44.47;17.98;;;;;;;;;;10486949;28;20058;-85
2023/09/29 06:53:55;;;;;;;36.58;16.67;;;;;;;;;;10486085;28;20142;-85
2023/09/29 06:58:56;;;;;;;42.72;16.30;;;;;;;;;;10487205;28;20526;-83
2023/09/29 07:03:57;;;;;;;33.63;16.02;;;;;;;;;;10486244;28;20102;-84
2023/09/29 07:08:58;;;;;;;37.20;16.73;;;;;;;;;;10468154;28;20110;-84
2023/09/29 07:13:59;;;;;;;35.58;16.17;;;;;;;;;;10485565;28;20036;-87
2023/09/29 07:19:00;;;;;;;25.90;14.80;;;;;;;;;;10485622;28;20040;-85
2023/09/29 07:24:01;;;;;;;27.13;15.00;;;;;;;;;;10484533;28;20024;-83
2023/09/29 07:29:03;;;;;;;26.73;15.23;;;;;;;;;;10485670;28;20103;-86
2023/09/29 07:34:04;;;;;;;27.73;14.25;;;;;;;;;;10485154;28;20119;-86
2023/09/29 07:39:05;;;;;;;32.05;14.98;;;;;;;;;;10485911;28;20097;-86
2023/09/29 07:44:08;;;;;;;24.52;13.73;;;;;;;;;;10484811;28;20059;-84
2023/09/29 07:49:09;;;;;;;31.20;13.98;;;;;;;;;;10466864;28;20048;-84
2023/09/29 07:54:11;;;;;;;37.50;14.55;;;;;;;;;;10484615;28;20057;-84
2023/09/29 07:59:13;;;;;;;23.63;12.60;;;;;;;;;;10484372;28;20485;-85
2023/09/29 08:04:14;;;;;;;21.45;11.05;;;;;;;;;;10484612;28;20033;-83
2023/09/29 08:09:15;;;;;;;20.35;11.90;;;;;;;;;;10485000;28;20036;-84
2023/09/29 08:14:16;;;;;;;24.77;11.48;;;;;;;;;;10484386;28;20032;-85
2023/09/29 08:19:17;;;;;;;35.00;12.82;;;;;;;;;;10484660;28;20024;-84
2023/09/29 08:24:18;;;;;;;17.60;9.52;;;;;;;;;;10486588;28;20036;-84
2023/09/29 08:29:19;;;;;;;13.57;8.98;;;;;;;;;;10474526;28;20086;-85
2023/09/29 08:34:34;;;;;;;16.15;8.82;;;;;;;;;;10492323;28;20077;-85
2023/09/29 08:39:35;;;;;;;14.40;7.78;;;;;;;;;;10492407;28;20036;-85
2023/09/29 08:44:37;;;;;;;12.07;8.90;;;;;;;;;;10491580;28;20055;-85
2023/09/29 08:49:40;;;;;;;17.02;8.15;;;;;;;;;;10492017;28;20032;-86
2023/09/29 08:54:41;;;;;;;13.55;7.47;;;;;;;;;;10490757;28;20189;-85
2023/09/29 08:59:44;;;;;;;10.50;7.97;;;;;;;;;;10491295;28;20029;-85
2023/09/29 09:04:45;;;;;;;15.98;7.70;;;;;;;;;;10491142;28;20395;-86
2023/09/29 09:09:48;;;;;;;17.60;7.50;;;;;;;;;;10477432;28;20035;-86
2023/09/29 09:14:49;;;;;;;12.73;7.68;;;;;;;;;;10472065;28;20039;-85
2023/09/29 09:19:54;;;;;;;12.55;6.95;;;;;;;;;;10490304;28;20507;-87
2023/09/29 09:25:04;;;;;;;13.15;7.70;;;;;;;;;;10472553;28;20044;-86
2023/09/29 09:30:06;;;;;;;19.67;8.15;;;;;;;;;;10490811;28;20033;-86
2023/09/29 09:35:07;;;;;;;12.93;8.07;;;;;;;;;;10488212;28;20048;-85
2023/09/29 09:40:09;;;;;;;11.85;6.70;;;;;;;;;;10489418;28;20021;-85
2023/09/29 09:45:11;;;;;;;12.75;6.47;;;;;;;;;;10489772;28;20027;-89
2023/09/29 09:50:14;;;;;;;12.65;6.40;;;;;;;;;;10489854;28;20073;-85
2023/09/29 09:55:15;;;;;;;10.05;6.10;;;;;;;;;;10488908;28;20130;-87
2023/09/29 10:00:16;;;;;;;15.32;6.43;;;;;;;;;;10489096;28;20655;-86
2023/09/29 10:05:30;;;;;;;10.48;5.90;;;;;;;;;;10489755;28;20110;-85
2023/09/29 10:10:35;;;;;;;11.45;5.72;;;;;;;;;;10470699;28;20384;-86
2023/09/29 10:15:36;;;;;;;;;;;;;;;;;;10489064;28;20081;-85
2023/09/29 10:20:37;;;;;;;9.85;6.25;;;;;;;;;;10489127;28;19965;-87
2023/09/29 10:25:38;;;;;;;9.75;5.43;;;;;;;;;;10470234;28;20765;-86
2023/09/29 10:30:40;;;;;;;13.00;5.82;;;;;;;;;;10470633;28;20483;-85
2023/09/29 10:35:44;;;;;;;8.65;5.72;;;;;;;;;;10487317;28;20033;-86
2023/09/29 10:40:45;;;;;;;15.57;5.90;;;;;;;;;;10469877;28;20035;-86
2023/09/29 10:45:47;;;;;;;11.13;5.55;;;;;;;;;;10469083;28;20024;-86
2023/09/29 10:50:52;;;;;;;9.00;6.00;;;;;;;;;;10486917;28;20734;-86
2023/09/29 10:55:54;;;;;;;;;;;;;;;;;;10444043;28;20045;-85
2023/09/29 11:00:55;;;;;;;9.32;5.65;;;;;;;;;;10445412;28;19915;-86
2023/09/29 11:06:08;;;;;;;9.88;5.50;;;;;;;;;;10430743;28;20060;-85
2023/09/29 11:11:09;;;;;;;8.20;5.15;;;;;;;;;;10443178;28;20036;-87
2023/09/29 11:16:26;;;;;;;12.98;6.15;;;;;;;;;;10444938;28;20044;-86
2023/09/29 11:21:37;;;;;;;7.32;5.75;;;;;;;;;;10444534;28;20104;-86
2023/09/29 11:26:48;;;;;;;10.20;5.50;;;;;;;;;;10444179;28;20017;-86
2023/09/29 11:31:51;;;;;;;16.83;5.85;;;;;;;;;;10445060;28;20040;-86
2023/09/29 11:36:52;;;;;;;10.52;5.70;;;;;;;;;;10444439;28;20112;-86
2023/09/29 11:41:53;;;;;;;11.15;5.57;;;;;;;;;;10444076;28;20032;-85
2023/09/29 11:46:54;;;;;;;8.93;5.15;;;;;;;;;;10429570;28;20056;-86
2023/09/29 11:51:56;;;;;;;12.38;5.38;;;;;;;;;;10443478;28;20045;-86
2023/09/29 11:56:57;;;;;;;8.57;5.55;;;;;;;;;;10478152;28;20581;-87
2023/09/29 12:01:58;;;;;;;6.80;5.03;;;;;;;;;;10484083;28;20028;-87
2023/09/29 12:06:59;;;;;;;9.80;5.15;;;;;;;;;;10486092;28;20457;-87
2023/09/29 12:12:00;;;;;;;7.43;5.70;;;;;;;;;;10484399;28;20036;-86
2023/09/29 12:17:01;;;;;;;9.18;5.88;;;;;;;;;;10484476;28;20031;-85
2023/09/29 12:22:03;;;;;;;9.52;5.43;;;;;;;;;;10484192;28;20482;-87
2023/09/29 12:27:07;;;;;;;9.60;5.32;;;;;;;;;;10485364;28;20056;-88
2023/09/29 12:32:09;;;;;;;11.32;5.97;;;;;;;;;;10466809;28;20066;-85
2023/09/29 12:37:11;;;;;;;9.75;5.18;;;;;;;;;;10480141;28;20091;-85
2023/09/29 12:42:12;;;;;;;6.85;4.82;;;;;;;;;;10460399;28;20472;-84
2023/09/29 12:47:14;;;;;;;10.43;5.38;;;;;;;;;;10482875;28;20021;-85
2023/09/29 12:52:15;;;;;;;7.57;5.38;;;;;;;;;;10455618;28;20040;-83
2023/09/29 12:57:17;;;;;;;10.07;5.32;;;;;;;;;;10479411;28;20044;-82
2023/09/29 13:02:20;;;;;;;6.10;5.22;;;;;;;;;;10464209;28;20040;-83
2023/09/29 13:07:21;;;;;;;7.95;5.88;;;;;;;;;;10474456;28;20419;-85
2023/09/29 13:12:22;;;;;;;7.05;5.38;;;;;;;;;;10470315;28;20039;-83
2023/09/29 13:17:23;;;;;;;9.50;5.65;;;;;;;;;;10472389;28;20094;-83
2023/09/29 13:22:24;;;;;;;13.68;5.70;;;;;;;;;;10490211;28;20097;-83
2023/09/29 13:27:25;;;;;;;8.40;5.00;;;;;;;;;;10488596;28;20053;-81
2023/09/29 13:32:26;;;;;;;9.23;5.80;;;;;;;;;;10475827;28;20037;-82
2023/09/29 13:37:28;;;;;;;8.38;5.63;;;;;;;;;;10488525;28;20392;-83
2023/09/29 13:42:29;;;;;;;11.23;5.88;;;;;;;;;;10486034;28;20028;-82
2023/09/29 13:47:30;;;;;;;10.55;5.47;;;;;;;;;;10463757;28;20043;-82
2023/09/29 13:52:31;;;;;;;12.15;5.97;;;;;;;;;;10488956;28;20515;-86
2023/09/29 13:57:32;;;;;;;13.38;5.75;;;;;;;;;;10488356;28;20057;-83
2023/09/29 14:02:33;;;;;;;9.40;5.68;;;;;;;;;;10482613;28;20565;-83
2023/09/29 14:07:34;;;;;;;9.63;6.20;;;;;;;;;;10487951;28;20032;-84
2023/09/29 14:12:37;;;;;;;8.25;5.40;;;;;;;;;;10475844;28;20041;-84
2023/09/29 14:17:38;;;;;;;8.30;5.25;;;;;;;;;;10470544;28;20082;-83
2023/09/29 14:22:39;;;;;;;8.00;5.45;;;;;;;;;;10487861;28;20025;-84
2023/09/29 14:27:47;;;;;;;8.98;5.50;;;;;;;;;;10455793;28;20028;-87
2023/09/29 14:32:48;;;;;;;10.48;5.47;;;;;;;;;;10497381;23;20060;-81
2023/09/29 14:37:49;;;;;;;8.93;5.22;;;;;;;;;;10486935;28;20348;-81
2023/09/29 14:42:50;;;;;;;7.00;4.78;;;;;;;;;;10483478;28;20039;-85
2023/09/29 14:47:51;;;;;;;12.43;5.28;;;;;;;;;;10476619;28;20036;-85
2023/09/29 14:52:59;;;;;;;9.23;4.93;;;;;;;;;;10484012;28;20035;-82
2023/09/29 14:58:00;;;;;;;7.72;5.00;;;;;;;;;;10486049;28;20029;-84
2023/09/29 15:03:01;;;;;;;13.82;6.65;;;;;;;;;;10498495;23;20468;-85
2023/09/29 15:08:02;;;;;;;10.23;5.07;;;;;;;;;;10497596;23;20078;-86
2023/09/29 15:13:03;;;;;;;9.63;4.93;;;;;;;;;;10479481;28;20056;-84
2023/09/29 15:18:04;;;;;;;7.60;5.55;;;;;;;;;;10484198;28;20037;-84
2023/09/29 15:23:09;;;;;;;6.72;5.65;;;;;;;;;;10485253;28;20488;-82
2023/09/29 15:28:13;;;;;;;11.05;5.20;;;;;;;;;;10472854;28;20048;-84
2023/09/29 15:33:15;;;;;;;7.70;5.45;;;;;;;;;;10466736;28;20028;-84
2023/09/29 15:38:17;;;;;;;10.02;5.75;;;;;;;;;;10485466;28;20024;-85
2023/09/29 15:43:18;;;;;;;7.47;5.18;;;;;;;;;;10485417;28;20036;-85
2023/09/29 15:48:19;;;;;;;7.20;5.47;;;;;;;;;;10486495;28;20036;-83
2023/09/29 15:53:20;;;;;;;7.68;5.35;;;;;;;;;;10462382;28;20041;-85
2023/09/29 15:58:21;;;;;;;25.27;14.50;;;;;;;;;;10453322;28;20028;-84
2023/09/29 16:03:22;;;;;;;43.03;21.60;;;;;;;;;;10485529;28;20066;-84
2023/09/29 16:08:23;;;;;;;28.48;15.90;;;;;;;;;;10483240;28;20088;-83
2023/09/29 16:13:24;;;;;;;23.67;12.77;;;;;;;;;;10464423;28;20031;-83
2023/09/29 16:18:26;;;;;;;25.73;13.35;;;;;;;;;;10479971;28;20581;-84
2023/09/29 16:23:27;;;;;;;18.95;12.00;;;;;;;;;;10472577;28;20423;-83
2023/09/29 16:28:28;;;;;;;18.08;11.73;;;;;;;;;;10485160;28;20131;-83
2023/09/29 16:33:30;;;;;;;17.30;10.98;;;;;;;;;;10489661;28;20086;-84
2023/09/29 16:38:33;;;;;;;15.15;10.38;;;;;;;;;;10484907;28;20136;-83
2023/09/29 16:43:34;;;;;;;18.08;11.48;;;;;;;;;;10486239;28;20417;-83
2023/09/29 16:48:35;;;;;;;23.65;14.35;;;;;;;;;;10492260;28;20052;-86
2023/09/29 16:53:37;;;;;;;34.85;22.17;;;;;;;;;;10489521;28;20055;-83
2023/09/29 16:58:39;;;;;;;20.25;13.80;;;;;;;;;;10492619;28;20042;-85
2023/09/29 17:03:40;;;;;;;20.73;13.30;;;;;;;;;;10500489;28;20483;-83
2023/09/29 17:08:41;;;;;;;20.98;11.45;;;;;;;;;;10459750;28;20110;-84
2023/09/29 17:13:49;;;;;;;16.08;10.98;;;;;;;;;;10481212;28;20037;-85
2023/09/29 17:18:50;;;;;;;17.48;10.63;;;;;;;;;;10452899;28;20028;-84
2023/09/29 17:23:51;;;;;;;36.35;20.83;;;;;;;;;;10490028;28;20039;-85
2023/09/29 17:28:52;;;;;;;40.83;25.75;;;;;;;;;;10489675;28;20054;-84
2023/09/29 17:33:53;;;;;;;25.70;17.52;;;;;;;;;;10478252;28;20072;-84
2023/09/29 17:38:54;;;;;;;24.67;16.52;;;;;;;;;;10487569;28;20032;-83
2023/09/29 17:43:55;;;;;;;22.58;14.73;;;;;;;;;;10488828;28;20121;-86
2023/09/29 17:48:57;;;;;;;31.20;20.02;;;;;;;;;;10489644;28;20101;-83
2023/09/29 17:53:58;;;;;;;34.28;22.42;;;;;;;;;;10485113;28;20043;-83
2023/09/29 17:59:00;;;;;;;34.63;21.13;;;;;;;;;;10451441;28;20055;-84
2023/09/29 18:04:02;;;;;;;27.63;17.02;;;;;;;;;;10478434;28;20060;-83
2023/09/29 18:09:05;;;;;;;30.70;17.20;;;;;;;;;;10488187;28;20091;-85
2023/09/29 18:14:06;;;;;;;26.67;17.52;;;;;;;;;;10485021;28;20040;-85
2023/09/29 18:19:07;;;;;;;27.58;18.98;;;;;;;;;;10481799;28;20043;-83
2023/09/29 18:24:08;;;;;;;25.25;15.88;;;;;;;;;;10480580;28;20042;-85
2023/09/29 18:29:09;;;;;;;20.88;14.02;;;;;;;;;;10487578;28;20039;-84
2023/09/29 18:34:10;;;;;;;20.73;14.02;;;;;;;;;;10471239;28;20033;-84
2023/09/29 18:39:13;;;;;;;21.02;13.85;;;;;;;;;;10478852;28;20024;-84
2023/09/29 18:44:14;;;;;;;22.27;13.38;;;;;;;;;;10485071;28;20029;-85
2023/09/29 18:49:16;;;;;;;20.65;13.15;;;;;;;;;;10473701;28;20396;-85
2023/09/29 18:54:17;;;;;;;28.98;18.77;;;;;;;;;;10482272;28;20119;-83
2023/09/29 18:59:18;;;;;;;25.88;15.80;;;;;;;;;;10468721;28;20147;-84
2023/09/29 19:04:19;;;;;;;23.98;16.77;;;;;;;;;;10471322;28;20047;-84
2023/09/29 19:09:22;;;;;;;27.15;17.88;;;;;;;;;;10498203;23;20060;-83
2023/09/29 19:14:23;;;;;;;25.77;17.17;;;;;;;;;;10486297;28;20028;-83
2023/09/29 19:19:24;;;;;;;24.83;17.45;;;;;;;;;;10496533;22;20060;-83
2023/09/29 19:24:25;;;;;;;24.10;16.17;;;;;;;;;;10484687;28;20025;-83
2023/09/29 19:29:26;;;;;;;20.52;14.45;;;;;;;;;;10485517;28;20028;-84
2023/09/29 19:34:27;;;;;;;22.48;14.98;;;;;;;;;;10478706;28;20040;-84
2023/09/29 19:39:28;;;;;;;23.52;14.52;;;;;;;;;;10478754;28;20025;-84
2023/09/29 19:44:29;;;;;;;22.95;15.23;;;;;;;;;;10475713;28;20705;-81
2023/09/29 19:49:31;;;;;;;22.65;13.75;;;;;;;;;;10471759;28;20036;-84
2023/09/29 19:54:32;;;;;;;24.17;14.68;;;;;;;;;;10482826;28;20039;-82
2023/09/29 19:59:32;;;;;;;23.77;12.98;;;;;;;;;;10485242;28;20028;-85
2023/09/29 20:04:33;;;;;;;19.30;12.98;;;;;;;;;;10470287;28;20028;-85
2023/09/29 20:09:34;;;;;;;25.17;15.52;;;;;;;;;;10484997;28;20089;-83
2023/09/29 20:14:35;;;;;;;46.00;27.67;;;;;;;;;;10484250;28;20044;-85
2023/09/29 20:19:36;;;;;;;49.38;30.35;;;;;;;;;;10484303;28;20094;-86
2023/09/29 20:24:37;;;;;;;54.72;30.35;;;;;;;;;;10492821;28;20410;-84
2023/09/29 20:29:39;;;;;;;51.75;29.95;;;;;;;;;;10489855;28;20078;-85
2023/09/29 20:34:40;;;;;;;39.65;23.83;;;;;;;;;;10460343;28;20591;-86
2023/09/29 20:39:41;;;;;;;37.35;21.58;;;;;;;;;;10466563;28;20035;-84
2023/09/29 20:44:42;;;;;;;35.60;18.58;;;;;;;;;;10492208;28;20036;-83
2023/09/29 20:49:43;;;;;;;32.15;17.67;;;;;;;;;;10491311;28;20032;-82
2023/09/29 20:54:50;;;;;;;23.80;16.42;;;;;;;;;;10478427;28;20036;-83
2023/09/29 20:59:51;;;;;;;30.05;17.13;;;;;;;;;;10492021;28;20037;-83
2023/09/29 21:04:52;;;;;;;24.77;16.90;;;;;;;;;;10491744;28;20036;-83
2023/09/29 21:09:53;;;;;;;27.73;16.17;;;;;;;;;;10492177;28;20117;-83
2023/09/29 21:15:02;;;;;;;28.10;17.45;;;;;;;;;;10489176;28;20115;-83
2023/09/29 21:20:06;;;;;;;26.42;16.00;;;;;;;;;;10485264;28;20058;-83
2023/09/29 21:25:07;;;;;;;28.92;18.10;;;;;;;;;;10490427;28;20020;-84
2023/09/29 21:30:08;;;;;;;26.60;16.20;;;;;;;;;;10501165;23;20531;-82
2023/09/29 21:35:17;;;;;;;31.08;18.98;;;;;;;;;;10489465;28;20048;-85
2023/09/29 21:40:19;;;;;;;28.83;19.15;;;;;;;;;;10489972;28;20040;-83
2023/09/29 21:45:20;;;;;;;29.15;18.02;;;;;;;;;;10483355;28;20107;-83
2023/09/29 21:50:21;;;;;;;32.58;19.23;;;;;;;;;;10471453;28;20028;-83
2023/09/29 21:55:22;;;;;;;31.90;20.48;;;;;;;;;;10488961;28;20550;-85
2023/09/29 22:00:23;;;;;;;28.80;17.42;;;;;;;;;;10489087;28;20052;-84
2023/09/29 22:05:24;;;;;;;31.48;19.17;;;;;;;;;;10488328;28;20073;-82
2023/09/29 22:10:25;;;;;;;29.50;19.55;;;;;;;;;;10488434;28;20036;-86
2023/09/29 22:15:26;;;;;;;29.60;19.58;;;;;;;;;;10488594;28;20047;-84
2023/09/29 22:20:27;;;;;;;30.98;20.00;;;;;;;;;;10488567;28;20028;-83
2023/09/29 22:25:28;;;;;;;28.80;18.27;;;;;;;;;;10486526;28;20037;-83
2023/09/29 22:30:31;;;;;;;33.00;19.83;;;;;;;;;;10487090;28;20060;-83
2023/09/29 22:35:32;;;;;;;36.90;19.65;;;;;;;;;;10487595;28;20068;-83
2023/09/29 22:40:33;;;;;;;33.00;20.85;;;;;;;;;;10487628;28;20111;-82
2023/09/29 22:45:34;;;;;;;35.15;22.33;;;;;;;;;;10486782;28;20407;-83
2023/09/29 22:50:36;;;;;;;38.22;24.25;;;;;;;;;;10485745;28;20028;-83
2023/09/29 22:55:37;;;;;;;31.30;22.13;;;;;;;;;;10467268;28;20439;-82
2023/09/29 23:00:38;;;;;;;40.20;24.70;;;;;;;;;;10486586;28;20101;-83
2023/09/29 23:05:41;;;;;;;39.70;24.92;;;;;;;;;;10482595;28;20408;-85
2023/09/29 23:10:42;;;;;;;36.20;24.92;;;;;;;;;;10486334;28;20016;-86
2023/09/29 23:15:43;;;;;;;40.00;26.88;;;;;;;;;;10486088;28;20115;-83
2023/09/29 23:20:45;;;;;;;36.22;24.13;;;;;;;;;;10485484;28;20051;-85
2023/09/29 23:25:47;;;;;;;38.72;24.20;;;;;;;;;;10485820;28;20032;-83
2023/09/29 23:30:49;;;;;;;33.00;20.85;;;;;;;;;;10485027;28;20056;-84
2023/09/29 23:35:50;;;;;;;31.38;21.90;;;;;;;;;;10484953;28;20040;-84
2023/09/29 23:40:51;;;;;;;32.83;20.95;;;;;;;;;;10485245;28;20032;-83
2023/09/29 23:45:52;;;;;;;29.08;19.10;;;;;;;;;;10497024;23;20069;-82
2023/09/29 23:50:53;;;;;;;39.38;25.67;;;;;;;;;;10479854;28;20052;-83
2023/09/29 23:55:54;;;;;;;37.63;25.17;;;;;;;;;;10483826;28;20032;-83
